FAWB/PRY METAR and TAF weather

Enter ICAO airport designator
Station Type Date Time Source
FAWB METAR 2019/08/21 12:00 UTC NOAA

FAWB 211200Z VRB01KT CAVOK 25/08 Q1032


Station Type Date Time Source
FAWB Decoded METAR 2019/08/21 12:00 UTC NOAA

Station name not available
Aug 21, 2019 - 08:00 AM EDT / 2019.08.21 1200 UTC
Wind: Variable at 1 MPH (1 KT):0
Visibility: greater than 7 mile(s):0
Temperature: 77 F (25 C)
Dew Point: 46 F (8 C)
Relative Humidity: 33%
Pressure (altimeter): 30.47 in. Hg (1032 hPa)
ob: FAWB 211200Z VRB01KT CAVOK 25/08 Q1032
cycle: 12

Station Type Date Time Source
FAWB TAF 2019/01/10 10:00 UTC NOAA

TAF FAWB 101000Z 1010/1018 30007KT CAVOK
BECMG 1014/1016 SCT035 PROB30
TEMPO 1016/1018 -TSRA FEW040CB TX31/1013Z TN26/1018Z

Example: see airport list